Time;durP1;ratioP1;P1;durP2;ratioP2;P2;SDS_P1;SDS_P2;PMS_P1;PMS_P2;Temp;Humidity;BMP_temperature;BMP_pressure;BME280_temperature;BME280_humidity;BME280_pressure;Samples;Min_cycle;Max_cycle;Signal;HPM_P1;HPM_P2
2022/03/29 00:00:38;;;;;;;36.20;19.27;;;;;;;17.15;51.56;100493.59;4995109;28;20030;-88
2022/03/29 00:03:04;;;;;;;33.30;18.88;;;;;;;16.98;51.92;100486.38;4995528;28;20042;-88
2022/03/29 00:05:30;;;;;;;37.75;20.42;;;;;;;16.96;51.93;100485.69;4976117;28;20054;-88
2022/03/29 00:07:55;;;;;;;32.30;19.70;;;;;;;17.03;51.56;100481.47;4983689;28;20112;-89
2022/03/29 00:10:21;;;;;;;31.23;19.15;;;;;;;17.08;51.57;100473.94;4995456;28;20488;-88
2022/03/29 00:12:46;;;;;;;35.83;20.45;;;;;;;17.03;51.87;100466.41;4989660;28;20026;-88
2022/03/29 00:15:12;;;;;;;35.78;19.27;;;;;;;17.09;51.17;100472.13;4980531;28;20034;-89
2022/03/29 00:17:37;;;;;;;38.45;20.33;;;;;;;17.15;51.37;100459.09;4995493;28;20034;-88
2022/03/29 00:20:04;;;;;;;36.45;21.08;;;;;;;17.10;51.55;100455.19;4994635;28;20504;-89
2022/03/29 00:22:29;;;;;;;33.65;19.13;;;;;;;17.19;51.49;100454.34;4995209;28;20035;-88
2022/03/29 00:24:54;;;;;;;35.40;20.38;;;;;;;17.02;51.76;100450.63;4993522;28;20440;-88
2022/03/29 00:27:20;;;;;;;42.28;19.50;;;;;;;17.08;51.86;100444.75;4975651;28;20027;-88
2022/03/29 00:29:45;;;;;;;35.58;20.70;;;;;;;16.96;52.07;100445.91;4975818;28;20027;-89
2022/03/29 00:32:11;;;;;;;33.00;19.52;;;;;;;17.15;51.99;100437.03;4994360;28;20045;-88
2022/03/29 00:34:37;;;;;;;33.97;19.95;;;;;;;17.23;51.86;100430.00;4984121;28;20045;-89
2022/03/29 00:37:04;;;;;;;37.53;20.35;;;;;;;17.01;51.99;100436.53;4975571;28;20113;-88
2022/03/29 00:39:29;;;;;;;31.15;18.85;;;;;;;16.92;52.18;100426.78;4984565;28;20118;-88
2022/03/29 00:41:57;;;;;;;39.88;20.70;;;;;;;16.91;52.45;100422.47;4995000;28;20493;-88
2022/03/29 00:44:29;;;;;;;37.17;19.75;;;;;;;16.96;52.15;100417.59;4986858;28;20389;-88
2022/03/29 00:46:55;;;;;;;37.03;20.02;;;;;;;16.90;52.34;100415.47;4975839;28;20084;-88
2022/03/29 00:49:20;;;;;;;35.70;18.92;;;;;;;16.79;52.53;100415.66;4981783;28;20038;-88
2022/03/29 00:51:46;;;;;;;32.83;18.85;;;;;;;16.78;52.67;100408.66;4994984;28;20098;-88
2022/03/29 00:54:12;;;;;;;36.78;21.20;;;;;;;16.78;52.43;100403.34;4989105;28;20035;-89
2022/03/29 00:56:38;;;;;;;35.22;19.23;;;;;;;16.84;52.42;100405.47;4975741;28;20137;-88
2022/03/29 00:59:03;;;;;;;34.95;20.45;;;;;;;16.81;52.47;100398.63;4987860;28;20497;-88
2022/03/29 01:01:29;;;;;;;39.38;20.73;;;;;;;16.79;52.46;100400.56;4993623;28;20671;-88
2022/03/29 01:03:54;;;;;;;35.58;20.02;;;;;;;16.83;52.32;100401.16;4976876;28;20027;-88
2022/03/29 01:06:20;;;;;;;37.63;19.98;;;;;;;16.81;52.47;100403.09;4979518;28;20042;-88
2022/03/29 01:08:45;;;;;;;34.42;20.33;;;;;;;16.75;52.54;100398.34;4981768;28;20081;-89
2022/03/29 01:11:12;;;;;;;35.55;20.85;;;;;;;16.69;52.89;100393.63;4974441;28;20110;-87
2022/03/29 01:13:38;;;;;;;36.88;20.45;;;;;;;16.65;53.36;100393.09;4974905;28;20038;-88
2022/03/29 01:18:49;;;;;;;35.63;21.42;;;;;;;16.38;54.48;100393.84;4975008;28;20085;-88
2022/03/29 01:21:20;;;;;;;39.38;21.77;;;;;;;16.62;53.96;100391.53;4974922;28;20539;-88
2022/03/29 01:23:47;;;;;;;36.13;21.10;;;;;;;16.60;54.22;100390.84;4974837;28;20026;-88
2022/03/29 01:26:16;;;;;;;35.17;20.70;;;;;;;16.64;54.40;100389.56;4974734;28;20374;-88
2022/03/29 01:28:42;;;;;;;39.90;22.13;;;;;;;16.58;54.42;100387.50;4973294;28;20242;-88
2022/03/29 01:31:08;;;;;;;37.55;21.98;;;;;;;16.49;56.08;100387.53;4974668;28;20039;-88
2022/03/29 01:33:34;;;;;;;41.25;21.67;;;;;;;16.44;56.50;100386.13;4974513;28;20035;-88
2022/03/29 01:36:00;;;;;;;42.20;23.35;;;;;;;16.23;57.09;100375.75;4974366;28;20057;-88
2022/03/29 01:38:26;;;;;;;46.58;24.10;;;;;;;16.10;57.28;100382.31;4990644;28;20026;-89
2022/03/29 01:40:51;;;;;;;34.72;21.88;;;;;;;16.12;57.32;100385.66;4992698;28;20027;-89
2022/03/29 01:43:16;;;;;;;33.08;21.55;;;;;;;16.22;57.21;100382.00;4993926;28;20117;-89
2022/03/29 01:45:42;;;;;;;36.33;21.33;;;;;;;16.28;57.00;100374.47;4992466;28;20113;-89
2022/03/29 01:48:07;;;;;;;38.88;21.27;;;;;;;16.26;56.80;100371.97;4993679;28;20113;-89
2022/03/29 01:50:32;;;;;;;36.65;21.42;;;;;;;16.21;57.60;100372.41;4993669;28;20477;-89
2022/03/29 01:52:58;;;;;;;41.22;22.75;;;;;;;16.11;57.61;100374.19;4993652;28;20026;-89
2022/03/29 01:55:23;;;;;;;37.90;22.98;;;;;;;16.04;57.98;100367.81;4993723;28;20469;-89
2022/03/29 01:57:51;;;;;;;34.85;21.35;;;;;;;15.96;57.88;100363.22;4993557;28;20031;-89
2022/03/29 02:00:34;;;;;;;37.60;23.23;;;;;;;15.92;58.02;100364.47;4993237;28;20400;-89
2022/03/29 02:03:05;;;;;;;36.65;22.73;;;;;;;15.87;58.32;100358.75;4993426;28;20100;-89
2022/03/29 02:05:32;;;;;;;38.17;21.70;;;;;;;15.80;58.74;100361.13;4993717;28;20109;-89
2022/03/29 02:07:57;;;;;;;31.50;21.38;;;;;;;15.74;58.71;100356.38;4993337;28;20030;-89
2022/03/29 02:10:23;;;;;;;39.22;22.85;;;;;;;15.71;59.12;100351.31;4993428;28;20097;-89
2022/03/29 02:12:50;;;;;;;36.83;21.80;;;;;;;15.72;59.36;100353.00;4993361;28;20038;-89
2022/03/29 02:15:16;;;;;;;34.17;22.05;;;;;;;15.66;59.36;100348.28;4992019;28;20409;-89
2022/03/29 02:17:44;;;;;;;34.38;21.45;;;;;;;15.67;59.93;100347.28;4992556;28;20033;-88
2022/03/29 02:20:10;;;;;;;35.60;21.83;;;;;;;15.64;59.45;100345.75;4987165;28;20038;-89
2022/03/29 02:22:35;;;;;;;37.00;21.00;;;;;;;15.55;60.17;100341.28;4992125;28;20022;-89
2022/03/29 02:25:01;;;;;;;35.45;19.63;;;;;;;15.63;60.02;100340.59;4992790;28;20033;-90
2022/03/29 02:27:26;;;;;;;36.72;22.58;;;;;;;15.41;60.38;100339.06;4991288;28;20109;-90
2022/03/29 02:29:51;;;;;;;36.47;22.17;;;;;;;15.45;60.09;100335.16;4993287;28;20030;-90
2022/03/29 02:32:17;;;;;;;36.83;20.58;;;;;;;15.43;60.31;100334.47;4993546;28;20022;-91
2022/03/29 02:34:45;;;;;;;42.97;22.08;;;;;;;15.29;60.02;100324.28;4993590;28;20122;-91
2022/03/29 02:37:11;;;;;;;37.13;22.85;;;;;;;15.25;60.39;100329.00;4992554;28;20035;-92
2022/03/29 02:39:37;;;;;;;38.03;24.13;;;;;;;15.19;61.44;100324.25;4993534;28;20018;-92
2022/03/29 02:42:03;;;;;;;37.50;22.35;;;;;;;15.03;61.21;100320.31;4993348;28;20058;-92
2022/03/29 02:44:29;;;;;;;34.75;23.65;;;;;;;15.13;60.99;100320.34;4993364;28;20113;-91
2022/03/29 02:46:56;;;;;;;35.80;23.92;;;;;;;15.17;60.63;100320.91;4993458;28;20045;-92
2022/03/29 02:49:22;;;;;;;34.75;21.70;;;;;;;14.85;61.80;100314.00;4993411;28;20030;-92
2022/03/29 02:51:47;;;;;;;38.80;22.48;;;;;;;14.79;61.72;100311.88;4993150;28;20101;-92
2022/03/29 02:54:14;;;;;;;41.22;23.45;;;;;;;14.85;61.26;100306.09;4993268;28;20054;-92
2022/03/29 02:56:40;;;;;;;36.85;23.35;;;;;;;14.78;61.67;100311.06;4994022;28;20022;-92
2022/03/29 02:59:05;;;;;;;33.78;21.88;;;;;;;14.85;62.63;100314.84;5011356;28;20010;-91
2022/03/29 03:01:31;;;;;;;41.30;24.65;;;;;;;14.61;63.43;100296.69;5015757;28;20089;-89
2022/03/29 03:03:57;;;;;;;42.28;24.65;;;;;;;14.93;63.17;100303.59;5013822;28;20030;-88
2022/03/29 03:06:22;;;;;;;39.65;23.63;;;;;;;15.05;62.80;100299.03;4992813;28;20497;-88
2022/03/29 03:08:47;;;;;;;43.63;23.80;;;;;;;15.03;62.65;100293.88;4992630;28;20492;-88
2022/03/29 03:11:13;;;;;;;35.75;23.35;;;;;;;14.84;63.69;100292.00;4992547;28;20034;-88
2022/03/29 03:13:38;;;;;;;41.83;23.52;;;;;;;14.83;63.19;100286.84;4992580;28;20113;-88
2022/03/29 03:16:04;;;;;;;36.58;23.48;;;;;;;14.77;63.94;100287.38;4990728;28;20026;-88
2022/03/29 03:18:29;;;;;;;37.92;22.23;;;;;;;14.93;63.61;100290.38;4992409;28;20026;-88
2022/03/29 03:20:55;;;;;;;37.63;22.60;;;;;;;15.05;63.16;100285.81;4992263;28;20034;-88
2022/03/29 03:23:20;;;;;;;40.78;24.83;;;;;;;15.02;63.64;100284.25;4990887;28;20037;-88
2022/03/29 03:25:46;;;;;;;39.72;23.73;;;;;;;14.88;63.26;100277.53;4992164;28;20041;-88
2022/03/29 03:28:11;;;;;;;35.88;21.77;;;;;;;14.90;63.71;100274.78;4992285;28;20551;-87
2022/03/29 03:30:36;;;;;;;36.92;22.35;;;;;;;14.83;63.27;100276.28;4992176;28;20026;-88
2022/03/29 03:33:02;;;;;;;39.83;22.38;;;;;;;14.80;63.74;100271.28;4991572;28;20384;-87
2022/03/29 03:35:27;;;;;;;42.78;23.50;;;;;;;14.75;64.27;100269.06;4995999;28;20037;-88
2022/03/29 03:37:52;;;;;;;35.65;22.13;;;;;;;14.89;64.37;100273.13;4996166;28;20105;-87
2022/03/29 03:40:18;;;;;;;43.38;25.00;;;;;;;14.87;64.63;100267.13;4995906;28;20050;-87
2022/03/29 03:42:44;;;;;;;41.00;22.77;;;;;;;14.90;64.35;100260.72;4995883;28;20049;-88
2022/03/29 03:45:10;;;;;;;43.63;23.67;;;;;;;14.82;65.12;100264.06;4995806;28;20388;-88
2022/03/29 03:47:36;;;;;;;40.13;22.73;;;;;;;14.82;64.63;100256.13;4995798;28;20022;-88
2022/03/29 03:50:01;;;;;;;33.97;22.13;;;;;;;14.66;64.87;100254.00;4995642;28;20109;-89
2022/03/29 03:52:27;;;;;;;39.22;21.88;;;;;;;14.62;64.79;100263.97;4995932;28;20385;-89
2022/03/29 03:54:54;;;;;;;33.97;22.67;;;;;;;14.43;65.54;100255.94;4995719;28;20528;-89
2022/03/29 03:57:20;;;;;;;36.80;22.17;;;;;;;13.93;66.98;100256.66;4994497;28;20088;-89
2022/03/29 03:59:48;;;;;;;35.53;22.88;;;;;;;13.92;67.21;100259.44;4995416;28;20018;-89
2022/03/29 04:02:14;;;;;;;42.40;22.80;;;;;;;14.25;66.04;100253.91;4995541;28;20477;-89
2022/03/29 04:04:40;;;;;;;35.70;22.33;;;;;;;14.19;65.87;100246.53;4994340;28;20030;-88
2022/03/29 04:07:06;;;;;;;42.78;24.85;;;;;;;14.39;65.39;100244.81;4995637;28;20022;-89
2022/03/29 04:09:35;;;;;;;35.03;21.83;;;;;;;14.47;65.57;100247.66;4995640;28;20104;-89
2022/03/29 04:12:03;;;;;;;47.58;23.00;;;;;;;14.45;64.99;100248.72;4995533;28;20022;-89
2022/03/29 04:14:29;;;;;;;37.33;23.75;;;;;;;14.48;65.19;100253.75;4995225;28;20045;-89
2022/03/29 04:16:54;;;;;;;37.03;23.42;;;;;;;14.32;65.59;100248.13;4995475;28;20026;-88
2022/03/29 04:19:20;;;;;;;42.55;24.95;;;;;;;14.34;65.82;100248.84;4995221;28;20484;-88
2022/03/29 04:21:45;;;;;;;40.70;24.40;;;;;;;14.41;65.02;100249.97;4995279;28;20461;-88
2022/03/29 04:24:10;;;;;;;40.40;24.52;;;;;;;14.30;66.25;100248.25;4995473;28;20568;-88
2022/03/29 04:26:36;;;;;;;42.90;25.02;;;;;;;14.37;66.40;100251.19;4995189;28;20474;-88
2022/03/29 04:29:01;;;;;;;40.50;24.38;;;;;;;14.17;66.22;100252.91;4995342;28;20033;-88
2022/03/29 04:31:26;;;;;;;44.60;25.45;;;;;;;14.28;65.91;100255.47;4995140;28;20105;-88
2022/03/29 04:33:52;;;;;;;45.65;25.98;;;;;;;14.29;66.44;100251.84;4995014;28;20027;-89
2022/03/29 04:36:17;;;;;;;50.67;24.73;;;;;;;14.35;66.05;100243.41;4994840;28;20026;-89
2022/03/29 04:38:43;;;;;;;45.20;25.25;;;;;;;14.28;65.80;100234.34;4995051;28;20421;-89
2022/03/29 04:41:09;;;;;;;42.72;23.80;;;;;;;14.18;65.96;100239.59;4995002;28;20097;-89
2022/03/29 04:43:34;;;;;;;41.45;24.40;;;;;;;14.05;65.86;100231.88;4994954;28;20077;-88
2022/03/29 04:46:01;;;;;;;48.38;24.80;;;;;;;14.15;66.03;100231.91;4994054;28;20030;-89
2022/03/29 04:48:27;;;;;;;43.08;23.92;;;;;;;14.14;66.26;100224.97;4993442;28;20026;-89
2022/03/29 04:50:52;;;;;;;40.60;23.60;;;;;;;14.17;65.57;100227.34;4994760;28;20389;-89
2022/03/29 04:53:17;;;;;;;40.22;24.10;;;;;;;14.16;65.73;100220.41;4994726;28;20366;-89
2022/03/29 04:55:44;;;;;;;40.25;24.73;;;;;;;14.14;65.77;100203.00;4993302;28;20400;-89
2022/03/29 04:58:10;;;;;;;40.35;23.13;;;;;;;14.24;65.84;100207.38;4993287;28;20473;-89
2022/03/29 05:00:36;;;;;;;36.95;22.90;;;;;;;14.28;65.63;100207.94;4993411;28;20461;-89
2022/03/29 05:03:01;;;;;;;40.50;21.85;;;;;;;14.19;65.18;100206.09;4994543;28;20037;-88
2022/03/29 05:05:26;;;;;;;39.25;21.85;;;;;;;14.17;65.55;100200.94;4994496;28;20514;-89
2022/03/29 05:07:52;;;;;;;35.67;20.95;;;;;;;14.28;65.39;100200.84;4988084;28;20022;-89
2022/03/29 05:10:18;;;;;;;40.67;21.70;;;;;;;14.37;65.05;100201.84;4983663;28;20030;-89
2022/03/29 05:12:46;;;;;;;37.45;21.33;;;;;;;13.84;65.73;100200.25;4992460;28;20072;-89
2022/03/29 05:15:13;;;;;;;37.50;20.60;;;;;;;14.20;64.05;100205.13;4993083;28;20039;-89
2022/03/29 05:17:39;;;;;;;32.28;19.98;;;;;;;14.42;63.93;100193.53;4984967;28;20022;-89
2022/03/29 05:20:06;;;;;;;39.15;21.05;;;;;;;14.14;64.77;100195.06;4974594;28;20023;-90
2022/03/29 05:22:32;;;;;;;33.17;19.67;;;;;;;14.22;64.80;100192.63;4974760;28;20035;-89
2022/03/29 05:24:58;;;;;;;30.70;18.45;;;;;;;14.38;63.74;100187.69;4973559;28;20034;-90
2022/03/29 05:27:24;;;;;;;38.58;19.40;;;;;;;14.38;63.75;100192.97;4974565;28;20088;-90
2022/03/29 05:29:49;;;;;;;34.22;20.58;;;;;;;14.33;63.70;100181.13;4982947;28;20031;-90
2022/03/29 05:32:18;;;;;;;37.63;20.52;;;;;;;14.29;64.05;100184.03;4980073;28;20041;-90
2022/03/29 05:34:45;;;;;;;32.10;18.83;;;;;;;14.20;63.67;100179.56;4993856;28;20026;-90
2022/03/29 05:37:11;;;;;;;28.25;17.50;;;;;;;14.38;62.73;100184.22;4994116;28;20026;-89
2022/03/29 05:39:36;;;;;;;36.10;19.13;;;;;;;14.36;63.00;100181.69;4994111;28;20080;-89
2022/03/29 05:42:03;;;;;;;36.90;18.65;;;;;;;14.41;62.63;100183.94;4988768;28;20026;-91
2022/03/29 05:44:28;;;;;;;27.13;16.88;;;;;;;14.55;62.52;100183.53;4975782;28;20445;-93
2022/03/29 05:49:37;;;;;;;27.23;15.55;;;;;;;14.29;62.54;100177.91;4978741;28;20394;-88
2022/03/29 05:52:03;;;;;;;32.33;15.65;;;;;;;14.33;62.62;100184.59;4996489;28;20038;-90
2022/03/29 05:54:30;;;;;;;28.10;15.00;;;;;;;14.18;62.91;100178.84;4991615;28;20036;-91
2022/03/29 05:56:55;;;;;;;33.03;16.35;;;;;;;14.36;62.34;100172.94;4992672;28;20034;-87
2022/03/29 05:59:20;;;;;;;29.50;16.33;;;;;;;14.27;62.74;100170.13;4987731;28;20050;-86
2022/03/29 06:01:46;;;;;;;27.02;15.80;;;;;;;14.27;61.97;100171.94;4992307;28;20033;-86
2022/03/29 06:04:11;;;;;;;29.17;15.32;;;;;;;14.17;62.69;100163.97;4974074;28;20038;-94
2022/03/29 06:06:38;;;;;;;26.98;15.32;;;;;;;14.24;62.11;100175.69;4978489;28;20026;-88
2022/03/29 06:09:04;;;;;;;26.52;15.50;;;;;;;14.18;62.67;100168.28;4984644;28;20030;-88
2022/03/29 06:11:30;;;;;;;26.52;15.18;;;;;;;14.24;62.40;100170.41;4990381;28;20041;-86
2022/03/29 06:13:55;;;;;;;29.70;16.35;;;;;;;14.18;62.03;100165.66;4987455;28;20053;-86
2022/03/29 06:16:21;;;;;;;26.95;15.23;;;;;;;14.17;62.32;100168.44;4990185;28;20031;-96
2022/03/29 06:18:46;;;;;;;26.08;14.90;;;;;;;14.17;62.19;100166.63;4991184;28;20056;-91
2022/03/29 06:21:12;;;;;;;29.50;16.75;;;;;;;14.12;61.45;100166.19;4969390;28;20041;-88
2022/03/29 06:23:38;;;;;;;28.75;16.27;;;;;;;14.27;61.78;100159.56;4969067;28;20320;-88
2022/03/29 06:26:04;;;;;;;35.60;20.40;;;;;;;14.27;61.92;100164.00;4973229;28;20030;-88
2022/03/29 06:28:30;;;;;;;38.55;22.48;;;;;;;14.25;62.38;100168.59;4977889;28;20045;-86
2022/03/29 06:30:56;;;;;;;39.55;23.42;;;;;;;14.19;62.07;100159.38;4982478;28;20027;-89
2022/03/29 06:33:22;;;;;;;40.50;23.13;;;;;;;14.10;62.75;100162.84;4981365;28;20034;-89
2022/03/29 06:35:48;;;;;;;31.73;19.80;;;;;;;14.33;61.53;100160.00;4992572;28;20037;-89
2022/03/29 06:38:13;;;;;;;38.00;19.60;;;;;;;14.40;61.69;100169.06;4991304;28;20026;-87
2022/03/29 06:40:39;;;;;;;31.40;19.02;;;;;;;14.53;61.03;100168.81;4981137;28;20382;-88
2022/03/29 06:43:04;;;;;;;34.72;17.90;;;;;;;14.36;62.22;100168.50;4983849;28;20041;-87
2022/03/29 06:45:30;;;;;;;32.35;17.38;;;;;;;14.43;61.46;100169.59;4972258;28;20026;-90
2022/03/29 06:47:58;;;;;;;32.85;18.40;;;;;;;14.21;62.88;100173.28;4973158;28;20367;-87
2022/03/29 06:50:23;;;;;;;28.60;17.23;;;;;;;14.25;63.07;100172.06;4990291;28;20109;-87
2022/03/29 06:52:49;;;;;;;40.58;20.10;;;;;;;14.32;62.40;100171.56;4992777;28;20436;-90
2022/03/29 06:55:17;;;;;;;35.20;18.90;;;;;;;14.33;62.67;100167.91;4991379;28;20484;-89
2022/03/29 06:57:43;;;;;;;33.58;17.55;;;;;;;14.26;62.41;100179.03;4989112;28;20030;-90
2022/03/29 07:00:09;;;;;;;33.67;17.90;;;;;;;14.17;62.97;100182.47;4987774;28;20477;-89
2022/03/29 07:02:35;;;;;;;35.40;17.88;;;;;;;14.14;62.67;100182.75;4992494;28;20026;-88
2022/03/29 07:05:02;;;;;;;30.17;17.38;;;;;;;14.09;62.54;100179.66;4992663;28;20030;-88
2022/03/29 07:07:28;;;;;;;32.25;17.42;;;;;;;14.24;63.07;100183.59;4984691;28;20022;-87
2022/03/29 07:12:59;;;;;;;33.70;18.92;;;;;;;14.21;62.94;100186.50;4972999;28;20037;-87
2022/03/29 07:15:25;;;;;;;33.65;17.63;;;;;;;14.37;62.97;100193.09;4973463;28;20501;-87
2022/03/29 07:17:51;;;;;;;37.40;18.92;;;;;;;14.54;62.50;100191.63;4979215;28;20442;-87
2022/03/29 07:20:16;;;;;;;34.85;19.05;;;;;;;14.34;62.91;100193.38;4988076;28;20062;-87
2022/03/29 07:22:43;;;;;;;36.08;20.42;;;;;;;14.21;63.68;100196.22;4991819;28;20073;-87
2022/03/29 07:25:09;;;;;;;33.33;19.20;;;;;;;14.13;62.85;100196.06;4973979;28;20488;-88
2022/03/29 07:27:35;;;;;;;41.25;20.13;;;;;;;14.38;62.25;100192.13;4985071;28;20053;-87
2022/03/29 07:30:03;;;;;;;35.05;19.10;;;;;;;14.45;62.67;100193.25;4983525;28;20495;-88
2022/03/29 07:32:28;;;;;;;33.45;18.52;;;;;;;13.95;64.12;100193.19;4978775;28;20031;-88
2022/03/29 07:34:54;;;;;;;32.53;19.10;;;;;;;14.22;62.75;100193.47;4986859;28;20080;-88
2022/03/29 07:37:21;;;;;;;34.38;18.50;;;;;;;14.26;63.32;100192.22;4972425;28;20035;-88
2022/03/29 07:39:47;;;;;;;30.48;18.63;;;;;;;14.20;63.29;100186.66;4976431;28;20112;-88
2022/03/29 07:42:12;;;;;;;31.85;19.50;;;;;;;14.33;63.41;100184.59;4984333;28;20488;-89
2022/03/29 07:44:38;;;;;;;41.85;19.45;;;;;;;14.27;63.33;100185.13;4989695;28;20053;-89
2022/03/29 07:47:03;;;;;;;35.35;19.23;;;;;;;14.29;63.17;100188.47;4975563;28;20026;-89
2022/03/29 07:49:29;;;;;;;33.78;18.33;;;;;;;14.34;62.91;100185.44;4971491;28;20073;-89
2022/03/29 07:51:56;;;;;;;35.00;18.65;;;;;;;14.44;62.79;100186.31;4973629;28;20030;-89
2022/03/29 07:54:21;;;;;;;31.13;17.42;;;;;;;14.27;63.80;100191.25;4973358;28;20382;-89
2022/03/29 07:56:47;;;;;;;32.88;18.63;;;;;;;14.46;62.72;100189.66;4973401;28;20134;-89
2022/03/29 07:59:13;;;;;;;34.90;18.65;;;;;;;14.64;61.84;100188.06;4973489;28;20023;-89
2022/03/29 08:01:38;;;;;;;32.05;18.02;;;;;;;14.49;62.40;100189.38;4975010;28;20385;-89
2022/03/29 08:04:04;;;;;;;34.92;19.38;;;;;;;14.53;62.74;100189.94;4990329;28;20019;-90
2022/03/29 08:06:30;;;;;;;34.78;18.95;;;;;;;14.67;62.06;100192.22;4994544;28;20023;-87
2022/03/29 08:08:56;;;;;;;30.85;17.27;;;;;;;14.54;62.48;100181.88;4987651;28;20059;-89
2022/03/29 08:11:22;;;;;;;35.28;18.00;;;;;;;14.75;62.16;100184.47;4975114;28;20046;-91
2022/03/29 08:13:48;;;;;;;33.75;18.23;;;;;;;14.53;62.30;100193.41;4973998;28;20030;-88
2022/03/29 08:16:14;;;;;;;30.08;16.67;;;;;;;14.84;61.66;100182.81;4972598;28;20031;-90
2022/03/29 08:18:39;;;;;;;31.38;17.88;;;;;;;14.61;60.85;100177.78;4973129;28;20026;-90
2022/03/29 08:21:47;;;;;;;32.30;17.70;;;;;;;14.71;61.00;100176.94;4973944;28;20035;-89
2022/03/29 08:23:51;;;;;;;36.25;17.15;;;;;;;14.75;60.70;100183.63;4976944;28;20058;-89
2022/03/29 08:26:16;;;;;;;30.75;16.50;;;;;;;14.68;60.03;100185.97;4975428;28;20069;-89
2022/03/29 08:28:42;;;;;;;31.70;15.57;;;;;;;14.48;59.80;100177.97;4976497;28;20432;-89
2022/03/29 08:31:07;;;;;;;31.17;18.10;;;;;;;14.52;60.52;100183.00;4976235;28;20030;-89
2022/03/29 08:33:32;;;;;;;31.90;16.73;;;;;;;14.46;60.08;100184.38;4977039;28;20023;-88
2022/03/29 08:35:57;;;;;;;34.13;17.17;;;;;;;14.65;59.98;100184.47;4976536;28;20032;-88
2022/03/29 08:38:24;;;;;;;36.55;17.63;;;;;;;14.67;60.24;100179.88;4976406;28;20429;-90
2022/03/29 08:40:55;;;;;;;31.33;16.58;;;;;;;14.52;61.02;100177.72;4975912;28;20102;-89
2022/03/29 08:43:23;;;;;;;31.15;16.90;;;;;;;14.61;60.52;100175.13;4974939;28;20381;-89
2022/03/29 08:45:49;;;;;;;55.40;20.38;;;;;;;14.60;60.91;100176.09;4975834;28;20041;-89
2022/03/29 08:48:14;;;;;;;495.05;67.43;;;;;;;14.53;61.07;100174.91;4975773;28;20397;-90
2022/03/29 08:50:40;;;;;;;563.38;77.57;;;;;;;14.55;60.75;100167.69;4975879;28;20038;-89
2022/03/29 08:53:07;;;;;;;49.80;19.85;;;;;;;14.62;60.98;100168.03;4976134;28;20014;-89
2022/03/29 08:55:33;;;;;;;44.58;17.67;;;;;;;14.59;61.30;100169.16;4975348;28;20489;-89
2022/03/29 08:57:59;;;;;;;33.03;17.00;;;;;;;14.59;61.07;100163.00;4975483;28;20089;-90
2022/03/29 09:00:24;;;;;;;32.20;17.50;;;;;;;14.63;60.40;100170.53;4975452;28;20027;-89
2022/03/29 09:02:50;;;;;;;30.60;16.98;;;;;;;14.50;60.74;100164.63;4975433;28;20034;-90
2022/03/29 09:05:21;;;;;;;75.45;22.73;;;;;;;14.65;60.35;100168.59;4975537;28;20389;-89
2022/03/29 09:08:02;;;;;;;37.50;18.60;;;;;;;14.54;60.98;100166.03;4975614;28;20033;-90
2022/03/29 09:10:44;;;;;;;27.00;16.80;;;;;;;14.28;61.75;100163.88;4975335;28;20097;-90
2022/03/29 09:13:28;;;;;;;30.65;17.48;;;;;;;14.47;61.88;100164.91;4975751;28;20033;-90
2022/03/29 09:15:59;;;;;;;33.38;17.80;;;;;;;14.08;62.02;100162.97;4975265;28;20118;-89
2022/03/29 09:18:25;;;;;;;31.70;16.83;;;;;;;14.03;61.79;100161.69;4973938;28;20058;-90
2022/03/29 09:21:13;;;;;;;32.80;17.08;;;;;;;14.28;61.63;100163.06;4976552;28;20173;-90
2022/03/29 09:23:43;;;;;;;27.45;15.73;;;;;;;14.21;61.70;100159.25;4975362;28;20401;-88
2022/03/29 09:26:28;;;;;;;31.95;17.45;;;;;;;14.39;61.53;100157.63;4980898;28;20041;-89
2022/03/29 09:28:53;;;;;;;34.95;18.05;;;;;;;14.49;61.34;100157.66;4994119;28;20026;-88
2022/03/29 09:31:22;;;;;;;33.08;16.55;;;;;;;14.77;60.97;100157.88;4990708;28;20046;-88
2022/03/29 09:33:48;;;;;;;35.42;17.48;;;;;;;14.56;60.36;100158.84;4993713;28;20065;-87
2022/03/29 09:36:20;;;;;;;29.67;16.13;;;;;;;14.63;60.11;100149.41;4997747;28;20041;-88
2022/03/29 09:38:47;;;;;;;29.52;17.10;;;;;;;14.67;60.47;100161.38;5003888;28;20504;-89
2022/03/29 09:41:18;;;;;;;40.20;19.50;;;;;;;14.53;60.73;100163.53;4981786;28;20396;-90
2022/03/29 09:43:44;;;;;;;28.48;16.77;;;;;;;14.61;60.56;100161.91;4994157;28;20469;-90
2022/03/29 09:46:09;;;;;;;28.13;15.90;;;;;;;14.60;60.17;100165.53;5002456;28;20048;-89
2022/03/29 09:48:37;;;;;;;97.13;20.70;;;;;;;14.47;60.57;100154.31;5011809;28;20028;-88
2022/03/29 09:51:08;;;;;;;31.38;15.70;;;;;;;14.38;60.80;100160.44;4987202;28;20516;-87
2022/03/29 09:53:38;;;;;;;29.75;15.82;;;;;;;14.29;60.24;100160.25;4982439;28;20479;-88
2022/03/29 09:56:06;;;;;;;26.50;14.80;;;;;;;14.50;60.54;100162.00;4991323;28;20042;-88
2022/03/29 09:58:31;;;;;;;28.58;16.40;;;;;;;14.60;59.85;100160.25;4986426;28;20019;-88
2022/03/29 10:00:58;;;;;;;34.60;15.65;;;;;;;14.50;60.53;100156.72;4974074;28;20105;-88
2022/03/29 10:03:27;;;;;;;32.20;16.42;;;;;;;14.61;59.84;100151.34;4973975;28;20033;-88
2022/03/29 10:05:54;;;;;;;27.10;15.18;;;;;;;14.44;59.95;100149.34;4973944;28;20030;-87
2022/03/29 10:11:12;;;;;;;22.45;12.07;;;;;;;14.72;58.11;100149.56;4974010;28;20064;-87
2022/03/29 10:13:38;;;;;;;28.98;13.90;;;;;;;14.56;58.69;100155.34;4973605;28;20110;-87
2022/03/29 10:16:04;;;;;;;25.60;12.07;;;;;;;14.54;58.69;100144.06;4973669;28;20121;-87
2022/03/29 10:18:30;;;;;;;25.98;12.95;;;;;;;14.60;58.09;100159.41;4974274;28;20042;-87
2022/03/29 10:20:57;;;;;;;19.48;11.60;;;;;;;14.49;58.24;100149.75;4973981;28;20027;-87
2022/03/29 10:23:24;;;;;;;24.65;12.73;;;;;;;14.29;58.51;100146.22;4972448;28;20029;-87
2022/03/29 10:25:51;;;;;;;20.58;11.55;;;;;;;14.55;58.14;100153.66;4973299;28;20490;-87
2022/03/29 10:28:17;;;;;;;29.80;12.40;;;;;;;14.82;57.39;100145.09;4973616;28;20366;-87
2022/03/29 10:30:43;;;;;;;25.55;12.57;;;;;;;14.59;58.11;100142.72;4973650;28;20082;-87
2022/03/29 10:33:25;;;;;;;20.35;12.27;;;;;;;14.94;58.04;100145.81;4973544;28;20388;-87
2022/03/29 10:36:00;;;;;;;25.92;12.25;;;;;;;15.01;57.18;100137.19;4973669;28;20034;-87
2022/03/29 10:38:46;;;;;;;24.30;12.85;;;;;;;15.11;56.26;100145.13;4973606;28;20058;-87
2022/03/29 10:41:27;;;;;;;19.23;12.35;;;;;;;15.10;57.62;100142.59;4973762;28;20469;-87
2022/03/29 10:43:54;;;;;;;27.20;15.48;;;;;;;14.72;58.04;100150.38;4972897;28;20026;-86
2022/03/29 10:46:24;;;;;;;28.80;15.95;;;;;;;14.95;57.23;100148.31;4973511;28;20031;-87
2022/03/29 10:49:20;;;;;;;25.23;14.63;;;;;;;15.15;56.82;100148.31;4973544;28;20050;-87
2022/03/29 10:51:47;;;;;;;26.17;13.27;;;;;;;15.23;56.72;100151.09;4973671;28;20026;-87
2022/03/29 10:54:31;;;;;;;24.65;13.13;;;;;;;15.17;57.30;100147.19;4973586;28;20022;-87
2022/03/29 10:57:20;;;;;;;28.25;14.20;;;;;;;14.91;58.65;100136.34;4973426;28;20023;-87
2022/03/29 10:59:50;;;;;;;27.08;14.00;;;;;;;14.90;58.34;100141.78;4973601;28;20161;-86
2022/03/29 11:02:20;;;;;;;24.73;14.07;;;;;;;14.93;58.40;100131.75;4973397;28;20113;-87
2022/03/29 11:05:08;;;;;;;23.40;12.32;;;;;;;15.20;58.06;100138.13;4973481;28;20023;-86
2022/03/29 11:07:52;;;;;;;21.52;12.35;;;;;;;15.20;57.95;100131.03;4973496;28;20122;-87
2022/03/29 11:10:20;;;;;;;20.65;12.23;;;;;;;15.30;56.31;100130.19;4973006;28;20023;-86
2022/03/29 11:12:46;;;;;;;18.02;11.35;;;;;;;15.57;56.00;100127.63;4973008;28;20106;-87
2022/03/29 11:15:24;;;;;;;18.67;11.10;;;;;;;15.86;55.98;100126.75;4973133;28;20035;-87
2022/03/29 11:17:53;;;;;;;16.67;11.18;;;;;;;16.00;55.26;100122.78;4972896;28;20409;-87
2022/03/29 11:20:38;;;;;;;19.27;11.25;;;;;;;16.13;56.08;100125.91;4973174;28;20465;-86